Time;durP1;ratioP1;P1;durP2;ratioP2;P2;SDS_P1;SDS_P2;PMS_P1;PMS_P2;Temp;Humidity;BMP_temperature;BMP_pressure;BME280_temperature;BME280_humidity;BME280_pressure;Samples;Min_cycle;Max_cycle;Signal;HPM_P1;HPM_P2
2023/02/09 00:00:05;;;;;;;22.65;19.25;;;;;;;;;;5040026;28;20469;-92
2023/02/09 00:02:32;;;;;;;24.90;19.75;;;;;;;;;;5023744;28;20418;-90
2023/02/09 00:04:58;;;;;;;24.55;20.55;;;;;;;;;;5019137;28;20383;-92
2023/02/09 00:07:24;;;;;;;24.00;19.20;;;;;;;;;;5018592;28;20383;-92
2023/02/09 00:09:51;;;;;;;24.20;19.33;;;;;;;;;;5018717;28;20781;-90
2023/02/09 00:15:03;;;;;;;27.20;20.35;;;;;;;;;;5036859;28;20426;-91
2023/02/09 00:17:29;;;;;;;23.70;19.52;;;;;;;;;;5018350;28;20383;-91
2023/02/09 00:19:55;;;;;;;26.60;20.80;;;;;;;;;;5018585;28;20753;-91
2023/02/09 00:22:21;;;;;;;25.30;20.45;;;;;;;;;;5038010;28;20845;-91
2023/02/09 00:24:47;;;;;;;25.27;20.08;;;;;;;;;;5034988;28;20371;-91
2023/02/09 00:27:13;;;;;;;23.40;19.67;;;;;;;;;;5017883;28;20425;-90
2023/02/09 00:29:39;;;;;;;25.27;19.85;;;;;;;;;;5021040;28;20408;-91
2023/02/09 00:32:05;;;;;;;26.75;20.48;;;;;;;;;;5054545;28;20445;-92
2023/02/09 00:34:31;;;;;;;26.83;20.35;;;;;;;;;;5057467;28;20924;-91
2023/02/09 00:36:57;;;;;;;25.48;19.58;;;;;;;;;;5038893;28;20461;-89
2023/02/09 00:39:23;;;;;;;24.45;20.27;;;;;;;;;;5036631;28;20375;-91
2023/02/09 00:42:04;;;;;;;25.60;20.55;;;;;;;;;;5055611;28;20393;-92
2023/02/09 00:44:30;;;;;;;24.85;20.45;;;;;;;;;;5038415;28;20397;-90
2023/02/09 00:46:56;;;;;;;25.95;20.00;;;;;;;;;;5039587;28;20393;-92
2023/02/09 00:49:23;;;;;;;25.77;21.08;;;;;;;;;;5057744;28;20446;-93
2023/02/09 00:51:49;;;;;;;25.85;20.75;;;;;;;;;;5057500;28;20408;-90
2023/02/09 00:54:18;;;;;;;24.42;20.08;;;;;;;;;;5039847;28;20373;-91
2023/02/09 00:56:44;;;;;;;25.08;20.95;;;;;;;;;;5039932;28;20397;-90
2023/02/09 00:59:10;;;;;;;27.33;21.13;;;;;;;;;;5053693;28;20842;-91
2023/02/09 01:01:36;;;;;;;26.97;20.53;;;;;;;;;;5054187;28;20875;-90
2023/02/09 01:04:03;;;;;;;26.63;20.63;;;;;;;;;;5053923;28;20389;-92
2023/02/09 01:06:28;;;;;;;24.08;20.23;;;;;;;;;;5054884;28;20904;-90
2023/02/09 01:08:54;;;;;;;25.60;21.05;;;;;;;;;;5037211;28;20378;-90
2023/02/09 01:11:21;;;;;;;25.98;20.02;;;;;;;;;;5054507;28;20415;-90
2023/02/09 01:13:47;;;;;;;23.75;19.90;;;;;;;;;;5038467;28;20386;-90
2023/02/09 01:16:15;;;;;;;25.08;20.67;;;;;;;;;;5055647;28;20385;-90
2023/02/09 01:18:42;;;;;;;27.83;21.23;;;;;;;;;;5037163;28;20384;-91
2023/02/09 01:21:09;;;;;;;26.83;21.20;;;;;;;;;;5040122;28;20389;-90
2023/02/09 01:23:35;;;;;;;27.20;21.83;;;;;;;;;;5056902;28;20373;-90
2023/02/09 01:26:02;;;;;;;26.63;20.63;;;;;;;;;;5042295;28;20413;-90
2023/02/09 01:28:28;;;;;;;25.80;21.33;;;;;;;;;;5056797;28;20405;-91
2023/02/09 01:30:54;;;;;;;25.88;20.88;;;;;;;;;;5035952;28;20926;-91
2023/02/09 01:33:20;;;;;;;25.73;20.60;;;;;;;;;;5054887;28;20374;-92
2023/02/09 01:35:46;;;;;;;25.83;20.63;;;;;;;;;;5035622;28;20414;-92
2023/02/09 01:38:12;;;;;;;26.27;21.13;;;;;;;;;;5054115;28;20381;-90
2023/02/09 01:40:38;;;;;;;26.00;20.37;;;;;;;;;;5054058;28;20916;-89
2023/02/09 01:43:04;;;;;;;26.77;20.77;;;;;;;;;;5054800;28;20381;-90
2023/02/09 01:45:48;;;;;;;28.38;21.92;;;;;;;;;;5055257;28;20435;-91
2023/02/09 01:48:15;;;;;;;26.00;20.75;;;;;;;;;;5056324;28;20374;-90
2023/02/09 01:50:45;;;;;;;25.80;20.48;;;;;;;;;;5060252;28;20970;-89
2023/02/09 01:53:11;;;;;;;24.95;20.08;;;;;;;;;;5060115;28;20416;-90
2023/02/09 01:55:45;;;;;;;27.50;20.67;;;;;;;;;;5044751;28;20393;-91
2023/02/09 01:58:13;;;;;;;27.97;21.73;;;;;;;;;;5062159;28;20380;-88
2023/02/09 02:00:39;;;;;;;27.02;21.13;;;;;;;;;;5058119;28;20397;-88
2023/02/09 02:03:07;;;;;;;24.50;20.15;;;;;;;;;;5039735;28;20377;-89
2023/02/09 02:05:34;;;;;;;28.63;21.80;;;;;;;;;;5040005;28;20871;-88
2023/02/09 02:08:02;;;;;;;27.75;21.13;;;;;;;;;;5044432;28;20421;-88
2023/02/09 02:10:29;;;;;;;28.23;21.35;;;;;;;;;;5064956;28;20444;-88
2023/02/09 02:12:55;;;;;;;27.40;20.65;;;;;;;;;;5046982;28;20392;-88
2023/02/09 02:15:23;;;;;;;25.07;20.57;;;;;;;;;;5072780;28;20381;-87
2023/02/09 02:17:49;;;;;;;25.27;20.57;;;;;;;;;;5068719;28;20468;-88
2023/02/09 02:20:18;;;;;;;26.33;21.05;;;;;;;;;;5068055;28;20382;-87
2023/02/09 02:23:03;;;;;;;29.00;21.93;;;;;;;;;;5063072;28;20377;-88
2023/02/09 02:25:29;;;;;;;27.77;21.55;;;;;;;;;;5041393;28;20448;-88
2023/02/09 02:28:01;;;;;;;28.35;21.50;;;;;;;;;;5060931;28;20430;-87
2023/02/09 02:30:46;;;;;;;26.58;21.30;;;;;;;;;;5057750;28;20432;-87
2023/02/09 02:33:27;;;;;;;27.25;21.33;;;;;;;;;;5043001;28;20370;-89
2023/02/09 02:35:54;;;;;;;28.25;21.58;;;;;;;;;;5056589;28;20416;-87
2023/02/09 02:38:48;;;;;;;27.33;21.48;;;;;;;;;;5060400;28;20405;-87
2023/02/09 02:41:17;;;;;;;27.60;21.83;;;;;;;;;;5023423;28;20430;-87
2023/02/09 02:44:12;;;;;;;27.73;20.67;;;;;;;;;;5038527;28;20476;-86
2023/02/09 02:46:41;;;;;;;28.92;21.38;;;;;;;;;;5035050;28;20389;-88
2023/02/09 02:49:10;;;;;;;27.67;21.45;;;;;;;;;;5055657;28;20386;-86
2023/02/09 02:51:39;;;;;;;28.52;21.63;;;;;;;;;;5055386;28;20488;-86
2023/02/09 02:54:07;;;;;;;29.10;21.70;;;;;;;;;;5055441;28;20813;-87
2023/02/09 02:56:39;;;;;;;29.27;22.35;;;;;;;;;;5054600;28;20386;-87
2023/02/09 02:59:07;;;;;;;28.67;21.58;;;;;;;;;;5055308;28;20908;-85
2023/02/09 03:01:38;;;;;;;26.90;21.77;;;;;;;;;;5055319;28;20431;-88
2023/02/09 03:04:05;;;;;;;28.20;21.10;;;;;;;;;;5055065;28;20390;-86
2023/02/09 03:06:32;;;;;;;25.70;20.65;;;;;;;;;;5054847;28;20389;-87
2023/02/09 03:08:58;;;;;;;27.95;21.65;;;;;;;;;;5055311;28;20388;-86
2023/02/09 03:11:29;;;;;;;27.00;21.52;;;;;;;;;;5055331;28;20459;-86
2023/02/09 03:13:58;;;;;;;30.25;22.13;;;;;;;;;;5055476;28;20378;-86
2023/02/09 03:16:31;;;;;;;28.92;21.08;;;;;;;;;;5055738;28;20378;-86
2023/02/09 03:19:04;;;;;;;27.30;20.88;;;;;;;;;;5053245;28;20408;-86
2023/02/09 03:21:41;;;;;;;29.35;21.58;;;;;;;;;;5055395;28;20950;-87
2023/02/09 03:24:27;;;;;;;29.73;22.00;;;;;;;;;;5055596;28;20382;-86
2023/02/09 03:27:09;;;;;;;28.98;21.38;;;;;;;;;;5028638;28;20417;-85
2023/02/09 03:29:37;;;;;;;27.95;21.60;;;;;;;;;;5051450;28;20393;-85
2023/02/09 03:32:03;;;;;;;27.00;21.52;;;;;;;;;;5047968;28;20421;-86
2023/02/09 03:34:29;;;;;;;29.70;22.10;;;;;;;;;;5052796;28;20377;-86
2023/02/09 03:36:57;;;;;;;29.52;22.17;;;;;;;;;;5055167;28;20381;-86
2023/02/09 03:39:23;;;;;;;27.80;21.67;;;;;;;;;;5055710;28;20377;-86
2023/02/09 03:41:49;;;;;;;30.60;21.83;;;;;;;;;;5056059;28;20456;-86
2023/02/09 03:44:27;;;;;;;29.05;21.70;;;;;;;;;;5056130;28;20420;-85
2023/02/09 03:46:56;;;;;;;31.55;22.55;;;;;;;;;;5054843;28;20867;-85
2023/02/09 03:49:22;;;;;;;29.57;22.13;;;;;;;;;;5055180;28;20385;-86
2023/02/09 03:51:48;;;;;;;31.67;22.63;;;;;;;;;;5053840;28;20500;-85
2023/02/09 03:54:14;;;;;;;29.15;22.08;;;;;;;;;;5053881;28;20409;-85
2023/02/09 03:56:40;;;;;;;27.40;21.27;;;;;;;;;;5054073;28;20391;-86
2023/02/09 03:59:06;;;;;;;29.60;21.98;;;;;;;;;;5052988;28;20447;-86
2023/02/09 04:01:32;;;;;;;28.48;21.70;;;;;;;;;;5052806;28;20493;-86
2023/02/09 04:04:01;;;;;;;30.58;22.85;;;;;;;;;;5051357;28;20389;-85
2023/02/09 04:06:29;;;;;;;29.60;22.35;;;;;;;;;;5051010;28;20384;-86
2023/02/09 04:08:56;;;;;;;31.67;22.35;;;;;;;;;;5051751;28;20743;-86
2023/02/09 04:11:22;;;;;;;29.65;22.05;;;;;;;;;;5032662;28;20809;-86
2023/02/09 04:13:48;;;;;;;27.47;21.07;;;;;;;;;;5053529;28;20470;-87
2023/02/09 04:16:16;;;;;;;27.58;21.60;;;;;;;;;;5051555;28;20381;-85
2023/02/09 04:18:43;;;;;;;29.33;21.85;;;;;;;;;;5052965;28;20374;-85
2023/02/09 04:21:09;;;;;;;29.02;21.48;;;;;;;;;;5054001;28;20870;-85
2023/02/09 04:23:35;;;;;;;28.20;22.27;;;;;;;;;;5054406;28;20392;-85
2023/02/09 04:26:01;;;;;;;28.17;22.52;;;;;;;;;;5055187;28;20381;-85
2023/02/09 04:28:27;;;;;;;29.98;22.05;;;;;;;;;;5055668;28;20859;-85
2023/02/09 04:30:53;;;;;;;30.92;22.33;;;;;;;;;;5054776;28;20463;-85
2023/02/09 04:33:20;;;;;;;29.77;21.90;;;;;;;;;;5054017;28;20388;-85
2023/02/09 04:35:49;;;;;;;29.90;21.65;;;;;;;;;;5032387;28;20397;-86
2023/02/09 04:38:19;;;;;;;29.10;22.45;;;;;;;;;;5022806;28;20929;-85
2023/02/09 04:40:46;;;;;;;28.15;22.27;;;;;;;;;;5035248;28;20382;-86
2023/02/09 04:43:12;;;;;;;30.73;22.45;;;;;;;;;;5027682;28;20395;-84
2023/02/09 04:45:38;;;;;;;28.38;22.13;;;;;;;;;;5036091;28;20383;-85
2023/02/09 04:48:05;;;;;;;28.60;21.75;;;;;;;;;;5027672;28;20457;-86
2023/02/09 04:50:32;;;;;;;31.35;22.85;;;;;;;;;;5040974;28;20419;-84
2023/02/09 04:52:58;;;;;;;29.57;22.50;;;;;;;;;;5047558;28;20389;-84
2023/02/09 04:55:24;;;;;;;29.33;22.08;;;;;;;;;;5038972;28;20990;-84
2023/02/09 05:00:35;;;;;;;28.60;22.38;;;;;;;;;;5053667;28;20364;-84
2023/02/09 05:03:01;;;;;;;31.93;22.80;;;;;;;;;;5051659;28;20385;-84
2023/02/09 05:05:27;;;;;;;32.83;23.35;;;;;;;;;;5035462;28;20379;-84
2023/02/09 05:07:53;;;;;;;30.88;22.38;;;;;;;;;;5047277;28;20387;-86
2023/02/09 05:10:19;;;;;;;30.48;22.55;;;;;;;;;;5029841;28;20874;-84
2023/02/09 05:12:46;;;;;;;30.63;23.40;;;;;;;;;;5036295;28;20905;-84
2023/02/09 05:15:12;;;;;;;32.60;22.50;;;;;;;;;;5054047;28;20373;-84
2023/02/09 05:17:38;;;;;;;31.45;22.02;;;;;;;;;;5054316;28;20381;-85
2023/02/09 05:20:04;;;;;;;32.38;23.52;;;;;;;;;;5054641;28;20393;-85
2023/02/09 05:22:30;;;;;;;31.17;22.92;;;;;;;;;;5053597;28;20381;-84
2023/02/09 05:24:56;;;;;;;30.20;22.48;;;;;;;;;;5054537;28;20870;-85
2023/02/09 05:27:22;;;;;;;30.92;23.25;;;;;;;;;;5039117;28;20453;-84
2023/02/09 05:29:48;;;;;;;30.70;23.08;;;;;;;;;;5058564;28;20413;-86
2023/02/09 05:32:15;;;;;;;31.27;23.38;;;;;;;;;;5067031;28;20401;-82
2023/02/09 05:34:41;;;;;;;33.00;23.13;;;;;;;;;;5069245;28;20416;-85
2023/02/09 05:37:07;;;;;;;33.20;24.15;;;;;;;;;;5066408;28;20855;-84
2023/02/09 05:39:33;;;;;;;33.03;22.90;;;;;;;;;;5064794;28;20440;-84
2023/02/09 05:42:14;;;;;;;32.80;23.02;;;;;;;;;;5045974;28;20377;-84
2023/02/09 05:44:40;;;;;;;30.70;22.83;;;;;;;;;;5043990;28;20394;-85
2023/02/09 05:47:06;;;;;;;31.88;22.45;;;;;;;;;;5059437;28;20399;-85
2023/02/09 05:49:33;;;;;;;30.87;22.63;;;;;;;;;;5059064;28;20451;-85
2023/02/09 05:51:59;;;;;;;32.00;23.20;;;;;;;;;;5042036;28;20412;-84
2023/02/09 05:54:25;;;;;;;29.83;22.38;;;;;;;;;;5059501;28;20430;-85
2023/02/09 05:56:51;;;;;;;30.20;23.00;;;;;;;;;;5058755;28;20572;-84
2023/02/09 05:59:17;;;;;;;29.63;23.27;;;;;;;;;;5058369;28;20464;-85
2023/02/09 06:01:43;;;;;;;31.25;23.17;;;;;;;;;;5039923;28;20390;-87
2023/02/09 06:04:09;;;;;;;35.57;25.30;;;;;;;;;;5039634;28;20393;-84
2023/02/09 06:06:36;;;;;;;29.98;22.98;;;;;;;;;;5039768;28;20435;-85
2023/02/09 06:09:02;;;;;;;30.80;23.38;;;;;;;;;;5057045;28;20433;-83
2023/02/09 06:11:28;;;;;;;30.75;23.27;;;;;;;;;;5058168;28;20401;-86
2023/02/09 06:13:54;;;;;;;34.08;24.50;;;;;;;;;;5058226;28;20753;-85
2023/02/09 06:16:20;;;;;;;33.83;24.10;;;;;;;;;;5057635;28;20388;-84
2023/02/09 06:18:46;;;;;;;29.47;23.17;;;;;;;;;;5057653;28;20384;-87
2023/02/09 06:21:12;;;;;;;30.63;23.38;;;;;;;;;;5039979;28;20397;-84
2023/02/09 06:23:38;;;;;;;31.58;23.42;;;;;;;;;;5039035;28;20381;-85
2023/02/09 06:26:08;;;;;;;32.15;23.40;;;;;;;;;;5056897;28;20763;-85
2023/02/09 06:28:34;;;;;;;33.22;23.60;;;;;;;;;;5039135;28;20434;-85
2023/02/09 06:31:00;;;;;;;36.63;23.55;;;;;;;;;;5039184;28;20417;-85
2023/02/09 06:33:26;;;;;;;33.28;23.48;;;;;;;;;;5045041;28;20392;-85
2023/02/09 06:35:55;;;;;;;29.57;22.93;;;;;;;;;;5038726;28;20495;-85
2023/02/09 06:38:21;;;;;;;33.38;24.50;;;;;;;;;;5056840;28;20386;-86
2023/02/09 06:40:47;;;;;;;30.60;23.92;;;;;;;;;;5038255;28;20392;-85
2023/02/09 06:43:13;;;;;;;33.50;24.40;;;;;;;;;;5056780;28;20468;-86
2023/02/09 06:45:39;;;;;;;34.33;23.70;;;;;;;;;;5038695;28;20390;-85
2023/02/09 06:48:06;;;;;;;31.00;24.27;;;;;;;;;;5038168;28;20902;-85
2023/02/09 06:50:32;;;;;;;31.77;23.00;;;;;;;;;;5038275;28;20420;-85
2023/02/09 06:52:58;;;;;;;33.00;24.40;;;;;;;;;;5056523;28;20405;-86
2023/02/09 06:55:25;;;;;;;35.03;24.27;;;;;;;;;;5056633;28;20396;-85
2023/02/09 06:57:51;;;;;;;35.88;25.23;;;;;;;;;;5037868;28;20385;-85
2023/02/09 07:00:17;;;;;;;40.45;28.15;;;;;;;;;;5038565;28;20859;-85
2023/02/09 07:02:44;;;;;;;42.45;29.70;;;;;;;;;;5058176;28;20862;-85
2023/02/09 07:05:14;;;;;;;42.25;30.70;;;;;;;;;;5057586;28;20468;-85
2023/02/09 07:07:40;;;;;;;41.90;29.88;;;;;;;;;;5059705;28;20388;-85
2023/02/09 07:10:07;;;;;;;36.72;26.75;;;;;;;;;;5057614;28;20377;-86
2023/02/09 07:12:33;;;;;;;36.97;27.38;;;;;;;;;;5057318;28;20396;-88
2023/02/09 07:15:02;;;;;;;32.58;24.98;;;;;;;;;;5039583;28;20385;-86
2023/02/09 07:17:29;;;;;;;34.17;25.13;;;;;;;;;;5039312;28;20398;-84
2023/02/09 07:19:55;;;;;;;32.80;24.90;;;;;;;;;;5039116;28;21066;-84
2023/02/09 07:22:21;;;;;;;34.95;25.55;;;;;;;;;;5057093;28;20382;-84
2023/02/09 07:24:47;;;;;;;34.60;25.80;;;;;;;;;;5056264;28;20393;-84
2023/02/09 07:27:14;;;;;;;32.53;24.98;;;;;;;;;;5055832;28;20385;-83
2023/02/09 07:29:40;;;;;;;34.05;25.45;;;;;;;;;;5055298;28;20889;-83
2023/02/09 07:32:07;;;;;;;33.70;25.77;;;;;;;;;;5054634;28;20484;-84
2023/02/09 07:34:33;;;;;;;36.08;26.05;;;;;;;;;;5050982;28;20397;-84
2023/02/09 07:37:00;;;;;;;37.83;26.83;;;;;;;;;;5030463;28;20395;-84
2023/02/09 07:39:26;;;;;;;32.97;25.40;;;;;;;;;;5044815;28;20382;-85
2023/02/09 07:41:52;;;;;;;36.55;26.25;;;;;;;;;;5047000;28;20502;-85
2023/02/09 07:44:18;;;;;;;36.38;26.10;;;;;;;;;;5048605;28;20405;-84
2023/02/09 07:46:44;;;;;;;35.78;26.80;;;;;;;;;;5055940;28;20384;-85
2023/02/09 07:49:11;;;;;;;33.45;25.85;;;;;;;;;;5053615;28;20385;-84
2023/02/09 07:51:37;;;;;;;34.53;25.80;;;;;;;;;;5053366;28;20405;-81
2023/02/09 07:54:03;;;;;;;35.60;26.20;;;;;;;;;;5052738;28;20385;-83
2023/02/09 07:56:29;;;;;;;35.83;26.00;;;;;;;;;;5034613;28;20390;-83
2023/02/09 07:58:55;;;;;;;38.17;26.45;;;;;;;;;;5045987;28;20397;-82
2023/02/09 08:01:22;;;;;;;35.72;26.27;;;;;;;;;;5039429;28;20394;-84
2023/02/09 08:03:48;;;;;;;38.22;27.30;;;;;;;;;;5057228;28;20409;-84
2023/02/09 08:06:24;;;;;;;36.33;26.95;;;;;;;;;;5056648;28;20392;-83
2023/02/09 08:08:51;;;;;;;37.90;27.55;;;;;;;;;;5055897;28;20395;-84
2023/02/09 08:11:20;;;;;;;40.70;28.02;;;;;;;;;;5054072;28;20451;-82
2023/02/09 08:13:47;;;;;;;37.67;27.40;;;;;;;;;;5054961;28;20381;-82
2023/02/09 08:16:15;;;;;;;39.73;27.87;;;;;;;;;;5039058;28;20471;-83
2023/02/09 08:18:44;;;;;;;37.53;27.13;;;;;;;;;;5054398;28;20390;-83
2023/02/09 08:21:12;;;;;;;40.47;27.52;;;;;;;;;;5054179;28;20393;-82
2023/02/09 08:23:40;;;;;;;36.92;26.75;;;;;;;;;;5054191;28;20381;-82
2023/02/09 08:26:08;;;;;;;36.47;26.98;;;;;;;;;;5054645;28;20392;-83
2023/02/09 08:28:35;;;;;;;39.95;28.02;;;;;;;;;;5054738;28;20436;-83
2023/02/09 08:31:02;;;;;;;36.35;27.27;;;;;;;;;;5045617;28;20839;-82
2023/02/09 08:33:28;;;;;;;39.08;26.75;;;;;;;;;;5054350;28;20385;-83
2023/02/09 08:35:54;;;;;;;39.47;29.13;;;;;;;;;;5054701;28;20374;-83
2023/02/09 08:38:20;;;;;;;38.30;28.80;;;;;;;;;;5054840;28;20469;-83
2023/02/09 08:40:46;;;;;;;37.72;28.67;;;;;;;;;;5062348;28;20783;-83
2023/02/09 08:43:12;;;;;;;40.15;28.05;;;;;;;;;;5055928;28;20382;-84
2023/02/09 08:45:40;;;;;;;40.20;29.40;;;;;;;;;;5055876;28;20389;-83
2023/02/09 08:48:08;;;;;;;39.90;29.30;;;;;;;;;;5055015;28;20389;-83
2023/02/09 08:50:34;;;;;;;40.00;28.58;;;;;;;;;;5055114;28;20408;-84
2023/02/09 08:53:01;;;;;;;38.53;28.35;;;;;;;;;;5036558;28;20390;-83
2023/02/09 08:55:28;;;;;;;43.13;30.75;;;;;;;;;;5054609;28;20373;-84
2023/02/09 08:57:54;;;;;;;43.97;30.40;;;;;;;;;;5064821;28;20453;-83
2023/02/09 09:00:20;;;;;;;44.80;31.42;;;;;;;;;;5045774;28;20404;-84
2023/02/09 09:02:46;;;;;;;44.08;31.20;;;;;;;;;;5059080;28;20420;-86
2023/02/09 09:05:12;;;;;;;46.10;32.00;;;;;;;;;;5057778;28;20475;-84
2023/02/09 09:07:38;;;;;;;44.05;31.75;;;;;;;;;;5050543;28;20396;-83
2023/02/09 09:10:05;;;;;;;45.07;31.27;;;;;;;;;;5057148;28;20381;-83
2023/02/09 09:12:31;;;;;;;42.65;31.00;;;;;;;;;;5055811;28;20401;-83
2023/02/09 09:14:57;;;;;;;47.28;32.45;;;;;;;;;;5062115;28;20382;-83
2023/02/09 09:17:23;;;;;;;46.83;32.50;;;;;;;;;;5074037;28;20462;-83
2023/02/09 09:19:51;;;;;;;45.67;30.88;;;;;;;;;;5056208;28;20384;-83
2023/02/09 09:22:17;;;;;;;48.85;33.35;;;;;;;;;;5056667;28;20382;-83
2023/02/09 09:24:43;;;;;;;49.58;33.97;;;;;;;;;;5056506;28;20385;-82
2023/02/09 09:27:10;;;;;;;46.33;32.20;;;;;;;;;;5056548;28;20404;-84
2023/02/09 09:29:38;;;;;;;52.15;34.65;;;;;;;;;;5056740;28;20393;-82
2023/02/09 09:32:04;;;;;;;60.13;35.65;;;;;;;;;;5056137;28;20470;-83
2023/02/09 09:34:30;;;;;;;48.30;34.50;;;;;;;;;;5056351;28;20785;-83
2023/02/09 09:36:56;;;;;;;51.67;34.20;;;;;;;;;;5056184;28;20373;-85
2023/02/09 09:39:24;;;;;;;54.00;35.22;;;;;;;;;;5039185;28;20381;-84
2023/02/09 09:41:52;;;;;;;52.80;36.47;;;;;;;;;;5056191;28;20385;-84
2023/02/09 09:44:28;;;;;;;51.23;35.43;;;;;;;;;;5056432;28;20885;-84
2023/02/09 09:46:59;;;;;;;49.27;35.73;;;;;;;;;;5056653;28;20397;-84
2023/02/09 09:49:26;;;;;;;55.10;36.13;;;;;;;;;;5056414;28;20377;-83
2023/02/09 09:51:57;;;;;;;54.92;35.60;;;;;;;;;;5055864;28;20886;-85
2023/02/09 09:54:24;;;;;;;57.17;37.30;;;;;;;;;;5056374;28;20378;-84
2023/02/09 09:56:51;;;;;;;51.53;36.45;;;;;;;;;;5059068;28;20465;-84
2023/02/09 09:59:20;;;;;;;50.30;35.65;;;;;;;;;;5038296;28;20794;-84
2023/02/09 10:01:47;;;;;;;48.30;34.78;;;;;;;;;;5054319;28;20409;-84
2023/02/09 10:04:13;;;;;;;54.20;37.70;;;;;;;;;;5037012;28;20422;-84
2023/02/09 10:06:41;;;;;;;53.53;36.85;;;;;;;;;;5054972;28;20431;-85
2023/02/09 10:09:36;;;;;;;60.88;40.65;;;;;;;;;;5055018;28;20778;-85
2023/02/09 10:12:05;;;;;;;54.85;38.00;;;;;;;;;;5038976;28;20450;-85
2023/02/09 10:14:31;;;;;;;53.83;39.30;;;;;;;;;;5040332;28;20378;-85
2023/02/09 10:16:57;;;;;;;56.17;38.73;;;;;;;;;;5054718;28;20875;-87
2023/02/09 10:19:24;;;;;;;52.83;36.72;;;;;;;;;;5054928;28;20376;-86
2023/02/09 10:21:51;;;;;;;51.13;35.97;;;;;;;;;;5054428;28;20439;-85
2023/02/09 10:24:27;;;;;;;52.67;37.80;;;;;;;;;;5054469;28;20867;-86
2023/02/09 10:27:12;;;;;;;53.15;37.83;;;;;;;;;;5054646;28;20393;-86
2023/02/09 10:29:38;;;;;;;51.63;36.13;;;;;;;;;;5054710;28;20384;-87
2023/02/09 10:32:04;;;;;;;53.83;35.87;;;;;;;;;;5037922;28;20427;-86
2023/02/09 10:34:42;;;;;;;50.80;36.67;;;;;;;;;;5054478;28;20902;-87
2023/02/09 10:37:41;;;;;;;52.25;37.38;;;;;;;;;;5055878;28;20413;-87
2023/02/09 10:40:13;;;;;;;50.47;36.30;;;;;;;;;;5002899;28;20447;-86
2023/02/09 10:42:40;;;;;;;51.88;36.95;;;;;;;;;;5054978;28;20532;-87
2023/02/09 10:45:21;;;;;;;49.42;35.75;;;;;;;;;;5054528;28;20472;-88
2023/02/09 10:48:13;;;;;;;48.97;34.90;;;;;;;;;;5054458;28;20377;-87
2023/02/09 10:50:53;;;;;;;47.67;34.60;;;;;;;;;;5032091;28;20401;-87
2023/02/09 10:53:24;;;;;;;47.83;35.20;;;;;;;;;;5054285;28;20402;-87
2023/02/09 10:55:50;;;;;;;48.47;34.97;;;;;;;;;;5054193;28;20419;-86
2023/02/09 10:58:16;;;;;;;51.05;36.60;;;;;;;;;;5036341;28;20780;-87
2023/02/09 11:00:48;;;;;;;48.93;35.87;;;;;;;;;;5036832;28;20531;-88
2023/02/09 11:03:24;;;;;;;49.55;36.25;;;;;;;;;;5054851;28;20406;-86
2023/02/09 11:06:00;;;;;;;52.15;37.13;;;;;;;;;;5053856;28;20377;-87
2023/02/09 11:08:32;;;;;;;50.03;36.05;;;;;;;;;;5054514;28;20424;-86
2023/02/09 11:11:06;;;;;;;49.90;36.53;;;;;;;;;;5053978;28;20408;-87
2023/02/09 11:13:33;;;;;;;49.40;36.50;;;;;;;;;;5053819;28;20461;-88
2023/02/09 11:16:06;;;;;;;51.35;36.20;;;;;;;;;;5053763;28;20367;-88
2023/02/09 11:18:32;;;;;;;47.38;36.03;;;;;;;;;;5058608;28;20952;-87
2023/02/09 11:21:17;;;;;;;54.95;36.97;;;;;;;;;;5056300;28;20371;-87
2023/02/09 11:23:58;;;;;;;49.58;36.83;;;;;;;;;;5054592;28;20410;-88
2023/02/09 11:26:24;;;;;;;49.22;36.08;;;;;;;;;;5053624;28;20376;-88
2023/02/09 11:28:53;;;;;;;50.58;35.92;;;;;;;;;;5054059;28;20385;-87
2023/02/09 11:31:23;;;;;;;48.95;35.25;;;;;;;;;;5054608;28;20412;-89
2023/02/09 11:34:07;;;;;;;46.03;34.10;;;;;;;;;;5053357;28;20373;-87
2023/02/09 11:36:33;;;;;;;48.53;35.58;;;;;;;;;;5053149;28;20412;-88
2023/02/09 11:39:05;;;;;;;47.50;34.47;;;;;;;;;;5053340;28;20416;-87
2023/02/09 11:44:33;;;;;;;48.25;34.75;;;;;;;;;;5052815;28;25127;-88
2023/02/09 11:47:03;;;;;;;46.73;34.10;;;;;;;;;;5053542;28;20389;-88
2023/02/09 11:49:31;;;;;;;45.83;34.55;;;;;;;;;;5053158;28;20389;-88
2023/02/09 11:51:58;;;;;;;45.45;33.88;;;;;;;;;;5052878;28;20406;-88
2023/02/09 11:54:27;;;;;;;45.58;33.63;;;;;;;;;;5052786;28;20369;-88
2023/02/09 11:56:55;;;;;;;46.58;33.58;;;;;;;;;;5052920;28;20407;-88
2023/02/09 11:59:37;;;;;;;44.65;34.08;;;;;;;;;;5053237;28;20386;-89
2023/02/09 12:02:22;;;;;;;45.10;34.05;;;;;;;;;;5053261;28;20407;-87
2023/02/09 12:04:48;;;;;;;42.80;33.75;;;;;;;;;;5048136;28;25083;-88
2023/02/09 12:07:21;;;;;;;44.30;33.75;;;;;;;;;;5041664;28;20389;-87
2023/02/09 12:09:50;;;;;;;43.92;33.05;;;;;;;;;;5049747;28;20431;-84
2023/02/09 12:12:22;;;;;;;42.58;31.92;;;;;;;;;;5056040;28;20416;-86
2023/02/09 12:14:54;;;;;;;43.95;33.88;;;;;;;;;;5052339;28;20395;-86
2023/02/09 12:17:23;;;;;;;41.67;31.48;;;;;;;;;;5052122;28;20400;-85
2023/02/09 12:20:00;;;;;;;40.10;31.48;;;;;;;;;;5052456;28;20460;-85
2023/02/09 12:22:35;;;;;;;41.10;30.53;;;;;;;;;;5049306;28;20383;-85
2023/02/09 12:25:10;;;;;;;42.00;30.90;;;;;;;;;;5056335;28;20374;-85
2023/02/09 12:27:37;;;;;;;41.42;31.80;;;;;;;;;;5055808;28;20408;-84
2023/02/09 12:30:23;;;;;;;42.30;32.10;;;;;;;;;;5056467;28;20428;-82
2023/02/09 12:32:49;;;;;;;40.45;30.83;;;;;;;;;;5060202;28;20400;-83
2023/02/09 12:35:26;;;;;;;40.53;30.90;;;;;;;;;;5059369;28;20409;-83
2023/02/09 12:38:13;;;;;;;41.72;31.17;;;;;;;;;;5053024;28;20531;-84
2023/02/09 12:40:39;;;;;;;42.08;32.30;;;;;;;;;;5052743;28;20374;-84
2023/02/09 12:43:25;;;;;;;39.80;30.77;;;;;;;;;;5054494;28;20365;-83
2023/02/09 12:46:10;;;;;;;39.33;31.40;;;;;;;;;;5052051;28;20397;-84
2023/02/09 12:48:47;;;;;;;43.40;32.28;;;;;;;;;;5051279;28;20369;-84
2023/02/09 12:51:32;;;;;;;39.38;31.13;;;;;;;;;;5049077;28;25128;-85
2023/02/09 12:53:58;;;;;;;40.90;32.17;;;;;;;;;;5034580;28;20400;-84
2023/02/09 12:56:28;;;;;;;42.75;30.73;;;;;;;;;;5034392;28;20381;-85
2023/02/09 12:58:55;;;;;;;38.42;30.85;;;;;;;;;;5051291;28;20552;-84
2023/02/09 13:01:21;;;;;;;38.30;29.73;;;;;;;;;;5051146;28;20736;-88
2023/02/09 13:04:00;;;;;;;39.67;30.23;;;;;;;;;;5050856;28;20397;-85
2023/02/09 13:06:26;;;;;;;38.08;29.48;;;;;;;;;;5051934;28;20386;-88
2023/02/09 13:08:54;;;;;;;39.92;31.00;;;;;;;;;;5051491;28;20385;-87
2023/02/09 13:11:23;;;;;;;38.75;29.02;;;;;;;;;;5052624;28;20401;-88
2023/02/09 13:14:10;;;;;;;37.95;28.80;;;;;;;;;;5053352;28;20412;-87
2023/02/09 13:16:39;;;;;;;36.95;28.92;;;;;;;;;;5055736;28;20388;-87
2023/02/09 13:19:15;;;;;;;39.33;29.27;;;;;;;;;;5038215;28;20396;-88
2023/02/09 13:22:00;;;;;;;36.45;28.90;;;;;;;;;;5044843;28;20389;-88
2023/02/09 13:24:44;;;;;;;37.85;29.33;;;;;;;;;;5052827;28;20380;-88
2023/02/09 13:27:17;;;;;;;37.70;29.42;;;;;;;;;;5053282;28;20400;-87
2023/02/09 13:29:53;;;;;;;35.28;27.85;;;;;;;;;;5053961;28;20374;-86
2023/02/09 13:32:19;;;;;;;32.58;27.50;;;;;;;;;;5053123;28;20468;-87
2023/02/09 13:34:45;;;;;;;35.80;27.90;;;;;;;;;;5053131;28;20381;-85
2023/02/09 13:37:30;;;;;;;35.75;27.83;;;;;;;;;;5054470;28;20381;-89
2023/02/09 13:40:00;;;;;;;34.35;27.65;;;;;;;;;;5035095;28;20416;-90
2023/02/09 13:42:27;;;;;;;35.78;27.25;;;;;;;;;;5052138;28;20863;-88
2023/02/09 13:44:55;;;;;;;34.60;26.60;;;;;;;;;;5053349;28;20432;-89
2023/02/09 13:47:21;;;;;;;35.03;26.50;;;;;;;;;;5034968;28;20390;-88
2023/02/09 13:50:01;;;;;;;34.28;25.92;;;;;;;;;;5053281;28;20374;-89
2023/02/09 13:52:31;;;;;;;34.50;27.10;;;;;;;;;;5056306;28;20492;-88
2023/02/09 13:55:07;;;;;;;34.53;27.40;;;;;;;;;;5056367;28;20375;-89
2023/02/09 13:57:34;;;;;;;35.67;27.25;;;;;;;;;;5058527;28;20374;-89
2023/02/09 14:00:08;;;;;;;35.55;27.70;;;;;;;;;;5055631;28;20786;-88
2023/02/09 14:02:35;;;;;;;36.43;27.87;;;;;;;;;;5054174;28;20474;-87
2023/02/09 14:05:02;;;;;;;37.28;28.30;;;;;;;;;;5056991;28;20737;-90
2023/02/09 14:07:31;;;;;;;33.03;25.98;;;;;;;;;;5055836;28;20416;-88
2023/02/09 14:10:02;;;;;;;32.60;25.73;;;;;;;;;;5037214;28;20423;-88
2023/02/09 14:12:49;;;;;;;35.95;26.00;;;;;;;;;;5054836;28;20394;-88
2023/02/09 14:18:01;;;;;;;33.90;25.75;;;;;;;;;;5056426;28;20735;-87
2023/02/09 14:20:27;;;;;;;32.97;25.58;;;;;;;;;;5056359;28;20378;-88
2023/02/09 14:22:57;;;;;;;30.65;24.75;;;;;;;;;;5055883;28;20373;-88
2023/02/09 14:25:24;;;;;;;33.25;24.88;;;;;;;;;;5055685;28;20374;-87
2023/02/09 14:27:50;;;;;;;35.85;25.42;;;;;;;;;;5055309;28;20431;-88
2023/02/09 14:30:25;;;;;;;31.42;24.05;;;;;;;;;;5056520;28;20412;-88
2023/02/09 14:32:54;;;;;;;32.45;25.17;;;;;;;;;;5056390;28;20401;-87
2023/02/09 14:35:22;;;;;;;31.63;25.15;;;;;;;;;;5056499;28;20910;-88
2023/02/09 14:37:49;;;;;;;29.73;23.48;;;;;;;;;;5058558;28;20851;-88